Time;durP1;ratioP1;P1;durP2;ratioP2;P2;SDS_P1;SDS_P2;PMS_P1;PMS_P2;Temp;Humidity;BMP_temperature;BMP_pressure;BME280_temperature;BME280_humidity;BME280_pressure;Samples;Min_cycle;Max_cycle;Signal;HPM_P1;HPM_P2
2023/07/04 00:01:47;;;;;;;72.93;5.90;;;18.10;1.00;;;;;;5041016;28;20407;-78
2023/07/04 00:04:17;;;;;;;67.90;5.17;;;18.10;1.00;;;;;;5058472;28;20411;-79
2023/07/04 00:06:43;;;;;;;75.70;5.57;;;18.10;1.00;;;;;;5058552;28;20400;-78
2023/07/04 00:09:09;;;;;;;70.37;5.53;;;18.10;1.00;;;;;;5058388;28;20450;-79
2023/07/04 00:11:34;;;;;;;68.20;4.77;;;18.00;1.00;;;;;;5058878;28;20172;-79
2023/07/04 00:14:00;;;;;;;73.67;5.03;;;18.00;1.00;;;;;;5058479;28;20495;-78
2023/07/04 00:16:26;;;;;;;69.30;5.17;;;17.90;1.00;;;;;;5058571;28;20172;-78
2023/07/04 00:18:52;;;;;;;68.77;5.07;;;17.90;1.00;;;;;;5058900;28;20565;-78
2023/07/04 00:21:18;;;;;;;75.87;4.70;;;17.90;1.00;;;;;;5058427;28;20171;-78
2023/07/04 00:23:46;;;;;;;72.13;5.40;;;17.90;1.00;;;;;;5058312;28;20165;-78
2023/07/04 00:26:17;;;;;;;73.00;4.80;;;17.80;1.00;;;;;;5057713;28;20818;-79
2023/07/04 00:28:44;;;;;;;67.80;5.07;;;17.80;1.00;;;;;;5058480;28;20476;-78
2023/07/04 00:31:14;;;;;;;71.83;4.70;;;17.60;1.00;;;;;;5058222;28;20403;-78
2023/07/04 00:33:39;;;;;;;70.87;5.17;;;17.60;1.00;;;;;;5058556;28;20473;-78
2023/07/04 00:36:15;;;;;;;66.83;3.93;;;17.60;1.00;;;;;;5058915;28;20411;-79
2023/07/04 00:38:41;;;;;;;76.70;5.40;;;17.60;1.00;;;;;;5058702;28;20265;-78
2023/07/04 00:41:13;;;;;;;71.23;4.70;;;17.60;1.00;;;;;;5058295;28;20830;-79
2023/07/04 00:43:46;;;;;;;71.80;4.90;;;17.60;1.00;;;;;;5058587;28;20399;-78
2023/07/04 00:46:15;;;;;;;71.37;4.40;;;17.50;1.00;;;;;;5058301;28;20399;-78
2023/07/04 00:48:44;;;;;;;73.90;4.43;;;17.50;1.00;;;;;;5057680;28;20431;-79
2023/07/04 00:51:21;;;;;;;68.40;4.10;;;17.60;1.00;;;;;;5058342;28;20403;-78
2023/07/04 00:53:53;;;;;;;71.97;5.50;;;17.70;1.00;;;;;;5058213;28;20956;-78
2023/07/04 00:56:25;;;;;;;67.20;4.50;;;17.70;1.00;;;;;;5039910;28;20412;-78
2023/07/04 00:58:58;;;;;;;83.00;5.00;;;17.70;1.00;;;;;;5040563;28;20458;-78
2023/07/04 01:01:25;;;;;;;72.07;5.43;;;17.60;1.00;;;;;;5058171;28;20407;-79
2023/07/04 01:03:52;;;;;;;73.20;4.10;;;17.50;1.00;;;;;;5058220;28;20467;-78
2023/07/04 01:06:27;;;;;;;72.47;4.70;;;17.50;1.00;;;;;;5058291;28;20407;-79
2023/07/04 01:08:59;;;;;;;69.23;4.30;;;17.60;1.00;;;;;;5057865;28;20529;-78
2023/07/04 01:11:32;;;;;;;68.47;3.73;;;17.50;1.00;;;;;;5058085;28;20387;-78
2023/07/04 01:13:58;;;;;;;73.77;4.73;;;17.50;1.00;;;;;;5057873;28;20885;-79
2023/07/04 01:16:24;;;;;;;67.83;4.43;;;17.50;1.00;;;;;;5040039;28;20411;-78
2023/07/04 01:18:56;;;;;;;72.30;4.13;;;17.40;1.00;;;;;;5057098;28;20187;-78
2023/07/04 01:21:25;;;;;;;71.70;5.23;;;17.40;1.00;;;;;;5057512;28;20426;-78
2023/07/04 01:24:11;;;;;;;70.90;4.87;;;17.30;1.00;;;;;;5058304;28;20396;-78
2023/07/04 01:26:43;;;;;;;68.40;4.73;;;17.20;1.00;;;;;;5057874;28;20752;-78
2023/07/04 01:29:13;;;;;;;71.70;4.80;;;17.20;1.00;;;;;;5057720;28;20414;-78
2023/07/04 01:31:40;;;;;;;69.10;4.20;;;17.10;1.00;;;;;;5039278;28;20516;-78
2023/07/04 01:34:08;;;;;;;68.10;4.60;;;17.10;1.00;;;;;;5039476;28;20461;-78
2023/07/04 01:36:37;;;;;;;69.77;4.30;;;17.00;1.00;;;;;;5056644;28;20399;-78
2023/07/04 01:39:07;;;;;;;70.30;4.70;;;17.00;1.00;;;;;;5039431;28;20537;-78
2023/07/04 01:41:33;;;;;;;68.40;4.37;;;17.00;1.00;;;;;;5057620;28;20403;-78
2023/07/04 01:44:04;;;;;;;70.60;5.20;;;17.00;1.00;;;;;;5058038;28;20399;-79
2023/07/04 01:46:31;;;;;;;74.57;4.23;;;17.00;1.00;;;;;;5056485;28;20171;-79
2023/07/04 01:48:57;;;;;;;72.73;5.27;;;17.00;1.00;;;;;;5039572;28;20446;-78
2023/07/04 01:51:27;;;;;;;71.57;5.10;;;17.00;1.00;;;;;;5038991;28;20411;-78
2023/07/04 01:53:52;;;;;;;75.93;5.33;;;16.80;1.00;;;;;;5038919;28;20530;-79
2023/07/04 01:56:18;;;;;;;71.93;5.60;;;16.90;1.00;;;;;;5038840;28;20442;-79
2023/07/04 01:58:44;;;;;;;71.87;5.93;;;16.90;1.00;;;;;;5057411;28;20737;-79
2023/07/04 02:01:09;;;;;;;72.90;5.17;;;17.00;1.00;;;;;;5056769;28;20193;-79
2023/07/04 02:03:36;;;;;;;73.30;5.80;;;17.00;1.00;;;;;;5056600;28;20188;-78
2023/07/04 02:06:02;;;;;;;70.97;6.07;;;16.80;1.00;;;;;;5056375;28;20164;-79
2023/07/04 02:08:27;;;;;;;68.83;5.40;;;16.80;1.00;;;;;;5056455;28;20427;-78
2023/07/04 02:10:53;;;;;;;70.80;5.93;;;16.80;1.00;;;;;;5056763;28;20403;-79
2023/07/04 02:13:19;;;;;;;75.00;5.87;;;16.80;1.00;;;;;;5056595;28;20222;-79
2023/07/04 02:15:44;;;;;;;74.30;6.20;;;16.70;1.60;;;;;;5056253;28;20165;-78
2023/07/04 02:18:10;;;;;;;73.77;6.63;;;16.70;1.60;;;;;;5056936;28;20184;-79
2023/07/04 02:20:36;;;;;;;70.70;6.50;;;16.70;1.30;;;;;;5056619;28;20245;-79
2023/07/04 02:23:01;;;;;;;74.23;6.17;;;16.80;1.20;;;;;;5056788;28;20161;-78
2023/07/04 02:25:27;;;;;;;68.60;6.00;;;16.80;1.00;;;;;;5056003;28;20247;-78
2023/07/04 02:27:53;;;;;;;71.17;6.53;;;16.80;1.00;;;;;;5056283;28;20188;-78
2023/07/04 02:30:18;;;;;;;75.57;6.60;;;16.70;3.60;;;;;;5055843;28;20196;-78
2023/07/04 02:32:44;;;;;;;73.60;7.10;;;16.70;5.20;;;;;;5056564;28;20192;-79
2023/07/04 02:35:10;;;;;;;72.73;8.10;;;16.60;8.20;;;;;;5057073;28;20172;-79
2023/07/04 02:37:36;;;;;;;72.30;7.10;;;16.60;7.30;;;;;;5056515;28;20263;-78
2023/07/04 02:40:02;;;;;;;72.30;7.63;;;16.50;9.30;;;;;;5056327;28;20509;-79
2023/07/04 02:42:27;;;;;;;71.33;7.23;;;16.60;10.30;;;;;;5057627;28;20164;-79
2023/07/04 02:44:53;;;;;;;71.47;7.43;;;16.60;12.40;;;;;;5056464;28;20411;-79
2023/07/04 02:47:25;;;;;;;74.47;8.47;;;16.60;12.20;;;;;;5056031;28;20212;-78
2023/07/04 02:49:54;;;;;;;79.50;8.50;;;16.60;12.40;;;;;;5060088;28;20387;-78
2023/07/04 02:52:21;;;;;;;71.90;7.93;;;16.60;11.40;;;;;;5059955;28;20473;-78
2023/07/04 02:54:47;;;;;;;71.70;7.53;;;16.50;14.30;;;;;;5060122;28;21025;-79
2023/07/04 02:57:16;;;;;;;73.00;8.60;;;16.50;16.00;;;;;;5060257;28;20445;-78
2023/07/04 02:59:42;;;;;;;71.00;9.30;;;16.50;17.70;;;;;;5060620;28;20640;-78
2023/07/04 03:02:08;;;;;;;74.97;9.23;;;16.40;19.80;;;;;;5043252;28;20414;-78
2023/07/04 03:04:33;;;;;;;79.10;9.53;;;16.40;18.70;;;;;;5060369;28;20395;-78
2023/07/04 03:06:59;;;;;;;78.10;9.07;;;16.40;20.50;;;;;;5059799;28;20438;-78
2023/07/04 03:09:25;;;;;;;70.07;9.53;;;16.40;20.80;;;;;;5060534;28;20173;-79
2023/07/04 03:11:51;;;;;;;71.47;9.40;;;16.40;19.50;;;;;;5060005;28;20168;-78
2023/07/04 03:14:17;;;;;;;81.27;10.10;;;16.50;17.30;;;;;;5059739;28;20960;-78
2023/07/04 03:16:42;;;;;;;70.40;9.77;;;16.40;20.80;;;;;;5060448;28;20260;-78
2023/07/04 03:19:08;;;;;;;73.30;11.00;;;16.40;22.20;;;;;;5059768;28;20623;-79
2023/07/04 03:21:34;;;;;;;73.10;10.13;;;16.30;24.00;;;;;;5059613;28;20242;-79
2023/07/04 03:23:59;;;;;;;74.20;11.07;;;16.30;25.20;;;;;;5059340;28;20173;-79
2023/07/04 03:26:25;;;;;;;71.90;9.63;;;16.40;22.60;;;;;;5060199;28;20198;-78
2023/07/04 03:28:50;;;;;;;73.60;12.20;;;16.30;23.30;;;;;;5059909;28;20223;-78
2023/07/04 03:31:16;;;;;;;73.87;10.73;;;16.30;24.70;;;;;;5059773;28;20176;-78
2023/07/04 03:33:42;;;;;;;80.47;10.77;;;16.30;23.30;;;;;;5059154;28;20203;-79
2023/07/04 03:36:07;;;;;;;75.90;11.53;;;16.30;25.20;;;;;;5059811;28;20178;-78
2023/07/04 03:38:33;;;;;;;76.20;10.13;;;16.30;26.00;;;;;;5059315;28;20234;-79
2023/07/04 03:40:59;;;;;;;73.90;11.10;;;16.30;25.90;;;;;;5059723;28;20164;-78
2023/07/04 03:43:25;;;;;;;69.40;9.17;;;16.30;23.40;;;;;;5059833;28;20169;-78
2023/07/04 03:45:51;;;;;;;74.13;10.90;;;16.30;27.10;;;;;;5059634;28;20183;-78
2023/07/04 03:48:17;;;;;;;77.20;11.13;;;16.30;25.50;;;;;;5060022;28;20427;-79
2023/07/04 03:50:43;;;;;;;73.97;10.27;;;16.30;27.40;;;;;;5059286;28;20481;-78
2023/07/04 03:53:09;;;;;;;74.50;12.40;;;16.10;34.60;;;;;;5059737;28;20934;-78
2023/07/04 03:55:35;;;;;;;74.27;11.20;;;16.10;35.90;;;;;;5060348;28;20800;-78
2023/07/04 03:58:02;;;;;;;79.07;12.03;;;16.00;39.80;;;;;;5059270;28;20583;-78
2023/07/04 04:00:27;;;;;;;74.40;10.87;;;16.10;37.30;;;;;;5057907;28;20438;-78
2023/07/04 04:02:53;;;;;;;73.37;11.23;;;16.10;40.40;;;;;;5059231;28;20417;-77
2023/07/04 04:05:21;;;;;;;71.43;10.93;;;16.20;35.50;;;;;;5059141;28;20165;-79
2023/07/04 04:07:50;;;;;;;76.37;11.60;;;16.30;32.80;;;;;;5059737;28;20188;-79
2023/07/04 04:10:17;;;;;;;72.50;11.30;;;16.20;37.10;;;;;;5059434;28;20834;-78
2023/07/04 04:12:42;;;;;;;80.77;11.50;;;16.20;38.60;;;;;;5058924;28;20888;-78
2023/07/04 04:15:08;;;;;;;76.00;9.57;;;16.20;43.20;;;;;;5059563;28;20417;-79
2023/07/04 04:17:35;;;;;;;80.60;13.27;;;16.20;41.30;;;;;;5059530;28;20188;-78
2023/07/04 04:20:04;;;;;;;78.87;12.20;;;16.20;39.60;;;;;;5060814;28;20164;-79
2023/07/04 04:22:30;;;;;;;72.57;10.10;;;16.20;43.40;;;;;;5059458;28;20395;-78
2023/07/04 04:24:56;;;;;;;72.50;10.60;;;16.20;41.60;;;;;;5059161;28;20399;-78
2023/07/04 04:27:26;;;;;;;80.13;11.17;;;16.30;41.40;;;;;;5041153;28;20438;-78
2023/07/04 04:29:54;;;;;;;80.03;10.93;;;16.30;41.20;;;;;;5041127;28;20423;-78
2023/07/04 04:32:22;;;;;;;75.87;12.07;;;16.30;41.30;;;;;;5058345;28;20404;-79
2023/07/04 04:34:48;;;;;;;82.33;12.60;;;16.30;42.50;;;;;;5058894;28;20447;-78
2023/07/04 04:37:13;;;;;;;73.80;10.60;;;16.30;45.50;;;;;;5058168;28;20968;-79
2023/07/04 04:39:39;;;;;;;75.93;10.80;;;16.40;45.10;;;;;;5058643;28;20441;-79
2023/07/04 04:42:05;;;;;;;75.17;8.77;;;16.50;44.10;;;;;;5041182;28;20176;-78
2023/07/04 04:44:33;;;;;;;72.50;9.37;;;16.60;41.60;;;;;;5140881;22;20761;-81
2023/07/04 04:46:59;;;;;;;73.70;8.33;;;16.70;40.70;;;;;;5081360;28;20405;-81
2023/07/04 04:49:36;;;;;;;77.63;8.67;;;17.00;37.70;;;;;;5061272;28;20459;-81
2023/07/04 04:52:01;;;;;;;83.47;8.13;;;17.20;29.30;;;;;;5042543;28;20207;-81
2023/07/04 04:54:36;;;;;;;72.73;8.37;;;17.40;25.20;;;;;;5061127;28;20869;-81
2023/07/04 04:57:08;;;;;;;69.80;6.70;;;17.50;20.70;;;;;;5042374;28;20183;-81
2023/07/04 04:59:39;;;;;;;72.37;6.60;;;17.60;20.60;;;;;;5060571;28;20387;-81
2023/07/04 05:02:05;;;;;;;72.97;7.40;;;17.70;16.70;;;;;;5060643;28;20387;-81
2023/07/04 05:04:31;;;;;;;75.70;7.07;;;17.70;17.60;;;;;;5043187;28;20412;-82
2023/07/04 05:07:02;;;;;;;75.33;7.33;;;17.70;13.40;;;;;;5060265;28;20624;-81
2023/07/04 05:09:31;;;;;;;70.53;6.53;;;17.70;14.40;;;;;;5061000;28;20146;-81
2023/07/04 05:12:17;;;;;;;74.40;7.40;;;17.90;12.90;;;;;;5059377;28;20445;-81
2023/07/04 05:14:50;;;;;;;78.80;8.07;;;18.00;7.60;;;;;;5041085;28;20442;-84
2023/07/04 05:17:21;;;;;;;70.90;7.37;;;18.00;8.00;;;;;;5058936;28;20383;-81
2023/07/04 05:19:50;;;;;;;69.80;7.00;;;18.00;6.00;;;;;;5058156;28;20917;-81
2023/07/04 05:22:25;;;;;;;74.07;7.07;;;18.00;7.60;;;;;;5040113;28;20400;-81
2023/07/04 05:24:51;;;;;;;72.10;7.53;;;17.90;7.10;;;;;;5041281;28;20849;-81
2023/07/04 05:27:17;;;;;;;74.80;8.20;;;18.00;6.30;;;;;;5058979;28;20442;-81
2023/07/04 05:29:57;;;;;;;72.87;7.67;;;18.10;7.20;;;;;;5058260;28;20406;-82
2023/07/04 05:32:23;;;;;;;80.57;8.53;;;17.90;6.30;;;;;;5059198;28;20406;-81
2023/07/04 05:34:52;;;;;;;77.00;9.03;;;17.90;8.50;;;;;;5059344;28;20950;-81
2023/07/04 05:37:20;;;;;;;74.33;6.57;;;17.90;11.90;;;;;;5042084;28;20172;-81
2023/07/04 05:42:17;;;;;;;77.10;8.50;;;17.90;6.20;;;;;;5037401;28;20456;-82
2023/07/04 05:44:46;;;;;;;72.80;8.10;;;17.80;10.80;;;;;;5039008;28;20402;-81
2023/07/04 05:47:11;;;;;;;69.93;7.87;;;17.80;12.00;;;;;;5038223;28;20500;-81
2023/07/04 05:49:37;;;;;;;69.40;7.80;;;17.70;13.00;;;;;;5038129;28;20438;-82
2023/07/04 05:52:03;;;;;;;76.70;8.63;;;17.70;17.00;;;;;;5037972;28;20219;-81
2023/07/04 05:54:28;;;;;;;79.50;9.40;;;17.70;13.10;;;;;;5037754;28;20220;-82
2023/07/04 05:56:55;;;;;;;75.20;7.90;;;17.70;13.80;;;;;;5038134;28;20412;-81
2023/07/04 05:59:21;;;;;;;73.70;9.57;;;17.80;13.60;;;;;;5019917;28;20197;-81
2023/07/04 06:01:50;;;;;;;73.70;9.37;;;17.80;14.50;;;;;;5525357;22;20505;-81
2023/07/04 06:04:16;;;;;;;77.57;8.00;;;17.80;10.90;;;;;;5078374;28;20433;-80
2023/07/04 06:06:52;;;;;;;72.80;8.37;;;17.70;10.00;;;;;;5079860;28;20485;-80
2023/07/04 06:09:18;;;;;;;82.00;9.67;;;17.70;12.60;;;;;;5080102;28;20176;-80
2023/07/04 06:11:46;;;;;;;74.40;10.13;;;17.60;14.80;;;;;;5079527;28;20466;-80
2023/07/04 06:14:28;;;;;;;72.07;9.17;;;17.60;15.30;;;;;;5078575;28;20442;-80
2023/07/04 06:16:59;;;;;;;70.90;9.67;;;17.70;16.50;;;;;;5079433;28;20399;-80
2023/07/04 06:19:25;;;;;;;69.17;9.93;;;17.70;12.30;;;;;;5079360;28;20418;-80
2023/07/04 06:21:51;;;;;;;77.53;9.53;;;17.60;17.00;;;;;;5079104;28;20466;-80
2023/07/04 06:24:17;;;;;;;76.80;10.33;;;17.70;13.50;;;;;;5084122;28;20405;-81
2023/07/04 06:26:44;;;;;;;78.03;8.73;;;17.70;13.80;;;;;;5084443;28;20506;-81
2023/07/04 06:29:10;;;;;;;75.77;9.83;;;17.90;13.60;;;;;;5083817;28;20425;-81
2023/07/04 06:31:41;;;;;;;73.30;9.70;;;17.70;16.30;;;;;;5083391;28;20802;-81
2023/07/04 06:34:07;;;;;;;74.27;8.10;;;17.80;12.40;;;;;;5083495;28;20176;-80
2023/07/04 06:36:33;;;;;;;74.40;9.60;;;17.80;13.90;;;;;;5065434;28;20417;-81
2023/07/04 06:39:02;;;;;;;75.00;10.43;;;17.80;11.60;;;;;;5065547;28;20194;-81
2023/07/04 06:41:28;;;;;;;73.10;8.37;;;17.90;12.20;;;;;;5083692;28;20170;-81
2023/07/04 06:43:54;;;;;;;71.20;8.13;;;17.90;10.30;;;;;;5065474;28;20406;-81
2023/07/04 06:46:21;;;;;;;74.30;9.43;;;18.00;9.90;;;;;;5083463;28;20916;-81
2023/07/04 06:48:48;;;;;;;73.20;11.07;;;17.90;9.80;;;;;;5082941;28;20208;-81
2023/07/04 06:51:15;;;;;;;73.10;8.07;;;18.00;8.30;;;;;;5083393;28;20765;-81
2023/07/04 06:53:42;;;;;;;71.80;10.30;;;18.00;7.50;;;;;;5065490;28;20477;-81
2023/07/04 06:56:17;;;;;;;70.83;8.27;;;18.00;11.30;;;;;;5065770;28;20501;-82
2023/07/04 06:58:46;;;;;;;72.23;8.37;;;18.10;6.30;;;;;;5066161;28;21005;-81
2023/07/04 07:01:12;;;;;;;75.20;9.87;;;18.10;7.40;;;;;;5083603;28;20394;-81
2023/07/04 07:03:38;;;;;;;73.67;10.27;;;18.10;6.70;;;;;;5084113;28;20452;-81
2023/07/04 07:06:06;;;;;;;74.43;9.50;;;18.20;6.80;;;;;;5084097;28;20230;-81
2023/07/04 07:08:32;;;;;;;72.90;8.43;;;18.20;5.70;;;;;;5065324;28;20925;-81
2023/07/04 07:11:00;;;;;;;70.13;7.23;;;18.40;1.00;;;;;;5084184;28;20812;-81
2023/07/04 07:13:26;;;;;;;80.77;10.60;;;18.50;1.00;;;;;;5083791;28;20449;-81
2023/07/04 07:16:15;;;;;;;72.77;7.57;;;18.40;1.00;;;;;;5083619;28;20962;-81
2023/07/04 07:18:42;;;;;;;73.43;7.50;;;18.60;1.00;;;;;;5083521;28;20414;-81
2023/07/04 07:21:10;;;;;;;74.23;8.43;;;18.70;1.00;;;;;;5083336;28;20398;-81
2023/07/04 07:23:37;;;;;;;78.50;8.37;;;18.70;1.00;;;;;;5065782;28;20413;-81
2023/07/04 07:26:07;;;;;;;76.10;7.17;;;18.80;1.00;;;;;;5083727;28;20402;-81
2023/07/04 07:28:44;;;;;;;70.40;7.23;;;18.90;1.00;;;;;;5065384;28;20434;-81
2023/07/04 07:31:15;;;;;;;70.17;7.00;;;18.90;1.00;;;;;;5083399;28;20523;-81
2023/07/04 07:33:45;;;;;;;75.10;7.27;;;19.00;1.00;;;;;;5065120;28;20449;-81
2023/07/04 07:36:23;;;;;;;72.57;6.77;;;19.10;1.00;;;;;;5063585;28;20404;-81
2023/07/04 07:38:51;;;;;;;74.20;6.73;;;19.10;1.00;;;;;;5079680;28;20414;-81
2023/07/04 07:41:18;;;;;;;76.80;6.83;;;19.10;1.00;;;;;;5079877;28;20897;-81
2023/07/04 07:43:44;;;;;;;72.73;6.90;;;19.10;1.00;;;;;;5080567;28;20448;-81
2023/07/04 07:46:15;;;;;;;74.17;6.60;;;19.20;1.00;;;;;;5080711;28;20407;-82
2023/07/04 07:48:45;;;;;;;72.10;5.67;;;19.20;1.00;;;;;;5080046;28;20825;-81
2023/07/04 07:51:12;;;;;;;73.80;6.43;;;19.20;1.00;;;;;;5062346;28;20411;-81
2023/07/04 07:53:42;;;;;;;72.00;6.97;;;19.10;1.00;;;;;;5080925;28;20438;-82
2023/07/04 07:56:11;;;;;;;76.37;5.73;;;19.10;1.00;;;;;;5080510;28;20410;-81
2023/07/04 07:58:38;;;;;;;70.50;5.10;;;19.30;1.00;;;;;;5080513;28;20426;-81
2023/07/04 08:01:19;;;;;;;68.63;4.73;;;19.50;1.00;;;;;;5079739;28;20402;-81
2023/07/04 08:03:46;;;;;;;81.43;5.20;;;19.60;1.00;;;;;;5080523;28;20422;-81
2023/07/04 08:06:26;;;;;;;74.97;4.40;;;19.60;1.00;;;;;;5079644;28;20893;-81
2023/07/04 08:08:53;;;;;;;68.40;4.03;;;19.70;1.00;;;;;;5079778;28;20418;-81
2023/07/04 08:11:20;;;;;;;70.57;4.53;;;19.70;1.00;;;;;;5080330;28;20406;-81
2023/07/04 08:13:46;;;;;;;70.30;3.93;;;19.80;1.00;;;;;;5079912;28;20779;-81
2023/07/04 08:16:22;;;;;;;72.97;3.80;;;19.80;1.00;;;;;;5079941;28;20437;-81
2023/07/04 08:18:48;;;;;;;69.13;3.90;;;20.00;1.00;;;;;;5078734;28;20458;-81
2023/07/04 08:21:14;;;;;;;76.67;4.33;;;19.90;1.00;;;;;;5061742;28;20410;-82
2023/07/04 08:23:39;;;;;;;75.63;4.40;;;19.90;1.00;;;;;;5079332;28;20452;-81
2023/07/04 08:26:05;;;;;;;72.57;4.23;;;19.90;1.00;;;;;;5080243;28;20302;-81
2023/07/04 08:28:31;;;;;;;78.10;3.93;;;19.90;1.00;;;;;;5079508;28;20429;-81
2023/07/04 08:31:05;;;;;;;71.20;3.80;;;19.80;1.00;;;;;;5079892;28;20253;-81
2023/07/04 08:33:31;;;;;;;68.50;3.60;;;19.80;1.00;;;;;;5079580;28;20180;-81
2023/07/04 08:35:59;;;;;;;72.37;4.20;;;19.80;1.00;;;;;;5079679;28;20400;-81
2023/07/04 08:38:25;;;;;;;71.90;4.10;;;19.90;1.00;;;;;;5060800;28;20422;-81
2023/07/04 08:40:51;;;;;;;72.40;4.00;;;19.90;1.00;;;;;;5079486;28;20406;-81
2023/07/04 08:45:52;;;;;;;72.87;4.10;;;20.10;1.00;;;;;;5600559;22;20228;-81
2023/07/04 08:48:32;;;;;;;69.20;3.87;;;20.20;1.00;;;;;;5078429;28;20421;-81
2023/07/04 08:51:01;;;;;;;68.40;3.60;;;20.10;1.00;;;;;;5079602;28;20381;-82
2023/07/04 08:53:37;;;;;;;69.17;4.73;;;20.00;1.00;;;;;;5079515;28;21000;-81
2023/07/04 08:56:31;;;;;;;68.40;3.70;;;20.00;1.00;;;;;;5079483;28;20398;-82
2023/07/04 08:59:18;;;;;;;74.60;3.80;;;20.20;1.00;;;;;;5206527;22;20495;-78
2023/07/04 09:02:05;;;;;;;67.47;3.90;;;20.40;1.00;;;;;;5084858;28;20396;-78
2023/07/04 09:05:10;;;;;;;73.60;3.83;;;20.50;1.00;;;;;;5064523;28;20800;-78
2023/07/04 09:07:44;;;;;;;70.17;3.73;;;20.70;1.00;;;;;;5081847;28;20475;-79
2023/07/04 09:10:20;;;;;;;74.17;3.63;;;20.70;1.00;;;;;;5081784;28;20423;-79
2023/07/04 09:12:48;;;;;;;70.93;3.87;;;20.70;1.00;;;;;;5066578;28;20769;-78
2023/07/04 09:15:36;;;;;;;79.33;5.00;;;20.80;1.00;;;;;;5084258;28;20407;-79
2023/07/04 09:18:55;;;;;;;68.93;4.23;;;21.00;1.00;;;;;;5084059;28;20421;-79
2023/07/04 09:21:24;;;;;;;71.27;4.40;;;21.00;1.00;;;;;;5082054;28;20766;-78
2023/07/04 09:23:51;;;;;;;72.63;4.10;;;21.10;1.00;;;;;;5063458;28;20444;-78
2023/07/04 09:26:26;;;;;;;70.83;3.80;;;21.30;1.00;;;;;;5081875;28;20408;-79
2023/07/04 09:28:54;;;;;;;70.20;3.80;;;21.40;1.00;;;;;;5080845;28;20784;-79
2023/07/04 09:31:26;;;;;;;69.17;3.93;;;21.50;1.00;;;;;;5063198;28;20449;-78
2023/07/04 09:33:53;;;;;;;71.83;4.10;;;21.60;1.00;;;;;;5083819;28;20422;-78
2023/07/04 09:36:21;;;;;;;70.90;4.23;;;21.70;1.00;;;;;;5066158;28;20420;-79
2023/07/04 09:38:51;;;;;;;70.17;3.87;;;21.80;1.00;;;;;;5065476;28;20430;-79
2023/07/04 09:41:18;;;;;;;70.07;4.20;;;21.80;1.00;;;;;;5082747;28;20540;-79
2023/07/04 09:43:44;;;;;;;74.83;4.33;;;22.00;1.00;;;;;;5083921;28;20410;-78
2023/07/04 09:46:29;;;;;;;73.00;4.73;;;22.10;1.00;;;;;;5083374;28;20407;-79
2023/07/04 09:49:16;;;;;;;71.77;4.30;;;22.30;1.00;;;;;;5080578;28;20426;-78
2023/07/04 09:51:41;;;;;;;70.57;4.70;;;22.60;1.00;;;;;;5083456;28;20402;-78
2023/07/04 09:54:13;;;;;;;73.40;4.50;;;23.00;1.00;;;;;;5081606;28;20488;-79
2023/07/04 09:56:40;;;;;;;75.63;5.93;;;23.20;1.00;;;;;;5062893;28;20167;-79
2023/07/04 09:59:13;;;;;;;74.17;5.70;;;23.30;1.00;;;;;;5063639;28;20472;-78
2023/07/04 10:01:48;;;;;;;76.30;5.17;;;23.20;1.00;;;;;;5083316;28;20403;-79
2023/07/04 10:04:33;;;;;;;72.40;4.80;;;23.20;1.00;;;;;;5082167;28;20413;-78
2023/07/04 10:06:59;;;;;;;69.50;4.50;;;23.30;1.00;;;;;;5064809;28;20436;-79
2023/07/04 10:09:26;;;;;;;75.63;5.40;;;23.50;1.00;;;;;;5082766;28;20883;-79
2023/07/04 10:12:10;;;;;;;71.00;6.00;;;23.50;1.00;;;;;;5082277;28;20406;-78
2023/07/04 10:14:45;;;;;;;70.40;5.87;;;23.50;1.00;;;;;;5065460;28;20473;-78
2023/07/04 10:17:15;;;;;;;73.40;5.57;;;23.80;1.00;;;;;;5065241;28;20923;-78
2023/07/04 10:19:45;;;;;;;73.67;6.70;;;23.90;1.00;;;;;;5064828;28;20402;-79
2023/07/04 10:22:10;;;;;;;70.80;5.60;;;24.00;1.00;;;;;;5081030;28;20402;-79
2023/07/04 10:24:36;;;;;;;79.00;6.70;;;24.10;1.00;;;;;;5079705;28;20410;-79
2023/07/04 10:27:06;;;;;;;75.60;8.90;;;24.20;1.00;;;;;;5082671;28;20642;-79
2023/07/04 10:29:40;;;;;;;72.50;7.13;;;24.10;1.00;;;;;;5082805;28;20727;-79
2023/07/04 10:32:13;;;;;;;74.50;5.80;;;24.00;1.00;;;;;;5062229;28;20410;-79
2023/07/04 10:34:40;;;;;;;71.53;7.07;;;24.10;1.00;;;;;;5079308;28;20426;-79
2023/07/04 10:37:08;;;;;;;75.87;5.30;;;24.50;1.00;;;;;;5060948;28;20439;-79
2023/07/04 10:39:38;;;;;;;74.77;6.80;;;24.90;1.00;;;;;;5063406;28;20411;-79
2023/07/04 10:42:38;;;;;;;73.30;7.30;;;24.90;1.00;;;;;;5061608;28;20443;-79
2023/07/04 10:45:05;;;;;;;74.17;7.43;;;25.00;1.00;;;;;;5078818;28;20431;-79
2023/07/04 10:47:37;;;;;;;76.40;8.70;;;25.10;1.00;;;;;;5080416;28;20833;-79
2023/07/04 10:50:17;;;;;;;74.67;8.17;;;25.30;1.00;;;;;;5081175;28;20523;-79
2023/07/04 10:52:46;;;;;;;72.17;8.17;;;25.60;1.00;;;;;;5064804;28;20427;-79
2023/07/04 10:55:27;;;;;;;72.40;8.50;;;25.60;1.00;;;;;;5063989;28;20439;-78
2023/07/04 10:58:03;;;;;;;74.67;8.20;;;25.50;1.00;;;;;;5082334;28;20425;-79
2023/07/04 11:00:36;;;;;;;75.07;9.73;;;25.60;1.00;;;;;;5063930;28;20414;-79
2023/07/04 11:03:08;;;;;;;77.10;9.30;;;25.60;1.00;;;;;;5082266;28;20385;-79
2023/07/04 11:05:41;;;;;;;73.53;9.03;;;25.70;1.00;;;;;;5083316;28;20416;-79
2023/07/04 11:08:13;;;;;;;76.50;10.57;;;25.70;1.00;;;;;;5082854;28;20451;-79
2023/07/04 11:10:45;;;;;;;77.80;10.23;;;25.70;1.00;;;;;;5084954;28;20393;-79
2023/07/04 11:13:20;;;;;;;74.10;9.60;;;25.90;1.00;;;;;;5086998;28;20443;-78
2023/07/04 11:15:58;;;;;;;75.77;10.47;;;25.90;1.00;;;;;;5085742;28;20409;-78
2023/07/04 11:18:27;;;;;;;73.73;9.23;;;26.20;1.00;;;;;;5087043;28;20425;-79
2023/07/04 11:21:07;;;;;;;74.40;10.53;;;26.30;1.00;;;;;;5069468;28;20409;-79
2023/07/04 11:23:53;;;;;;;77.90;12.20;;;26.40;1.00;;;;;;5085653;28;20411;-79
2023/07/04 11:26:40;;;;;;;77.67;11.83;;;26.30;1.00;;;;;;5069820;28;20444;-79
2023/07/04 11:29:14;;;;;;;74.20;9.90;;;26.20;1.00;;;;;;5087621;28;20484;-79
2023/07/04 11:32:03;;;;;;;74.50;12.33;;;26.50;1.00;;;;;;5087484;28;20865;-79
2023/07/04 11:34:49;;;;;;;77.17;10.30;;;26.70;1.00;;;;;;5086630;28;20495;-79
2023/07/04 11:37:28;;;;;;;75.50;11.43;;;26.60;1.00;;;;;;5086480;28;20432;-79
2023/07/04 11:40:00;;;;;;;74.43;11.67;;;26.30;1.00;;;;;;5068189;28;20404;-79
2023/07/04 11:42:47;;;;;;;74.83;11.20;;;25.90;1.00;;;;;;5085812;28;20467;-78
2023/07/04 11:45:15;;;;;;;78.23;11.57;;;25.80;1.00;;;;;;5087600;28;20986;-79
2023/07/04 11:47:54;;;;;;;74.10;11.20;;;25.70;1.00;;;;;;5087429;28;20461;-79
2023/07/04 11:50:34;;;;;;;76.10;12.70;;;25.80;1.00;;;;;;5068242;28;20445;-79
2023/07/04 11:53:02;;;;;;;74.27;11.30;;;26.00;1.00;;;;;;5085809;28;20862;-78
2023/07/04 11:55:33;;;;;;;75.80;11.00;;;26.30;1.00;;;;;;5085825;28;20909;-79
2023/07/04 11:58:02;;;;;;;73.67;11.10;;;26.40;1.00;;;;;;5086456;28;20994;-79
2023/07/04 12:00:30;;;;;;;73.67;11.27;;;26.20;1.00;;;;;;5086452;28;20434;-78
2023/07/04 12:02:57;;;;;;;75.20;12.23;;;26.20;1.00;;;;;;5086119;28;20741;-78
2023/07/04 12:05:33;;;;;;;74.37;11.70;;;26.20;1.00;;;;;;5085390;28;20398;-79
2023/07/04 12:08:07;;;;;;;74.20;13.50;;;26.30;1.00;;;;;;5083816;28;20450;-79
2023/07/04 12:10:35;;;;;;;75.73;12.60;;;26.40;1.00;;;;;;5083688;28;20393;-78
2023/07/04 12:13:03;;;;;;;76.10;13.30;;;26.40;1.00;;;;;;5083516;28;20398;-78
2023/07/04 12:15:35;;;;;;;75.00;14.00;;;26.60;1.00;;;;;;5066105;28;20421;-79
2023/07/04 12:18:23;;;;;;;74.23;11.80;;;26.70;1.00;;;;;;5084047;28;20422;-79
2023/07/04 12:20:50;;;;;;;74.00;12.43;;;26.90;1.00;;;;;;5084790;28;20743;-79
2023/07/04 12:23:16;;;;;;;77.77;13.80;;;26.80;1.00;;;;;;5085745;28;20551;-79
2023/07/04 12:25:47;;;;;;;74.27;10.90;;;26.80;1.00;;;;;;5084543;28;20406;-79
2023/07/04 12:28:15;;;;;;;74.17;14.07;;;26.80;1.00;;;;;;5066004;28;20191;-79
2023/07/04 12:30:48;;;;;;;74.07;10.87;;;26.80;1.00;;;;;;5083084;28;20936;-78
2023/07/04 12:33:21;;;;;;;75.53;11.77;;;26.60;1.00;;;;;;5083585;28;20433;-79
2023/07/04 12:35:54;;;;;;;75.80;9.60;;;26.60;1.00;;;;;;5086336;28;20409;-79
2023/07/04 12:38:22;;;;;;;76.50;11.50;;;26.60;1.00;;;;;;5083713;28;20426;-79
2023/07/04 12:40:49;;;;;;;77.77;11.77;;;26.80;1.00;;;;;;5085686;28;20406;-79
2023/07/04 12:43:15;;;;;;;74.70;10.73;;;26.80;1.00;;;;;;5085440;28;20430;-79
2023/07/04 12:45:42;;;;;;;76.97;11.70;;;26.90;1.00;;;;;;5085102;28;20442;-78
2023/07/04 12:48:10;;;;;;;74.60;12.33;;;26.90;1.00;;;;;;5084961;28;20430;-79
2023/07/04 12:50:39;;;;;;;75.17;8.87;;;27.00;1.00;;;;;;5084381;28;20416;-79
2023/07/04 12:53:07;;;;;;;77.20;10.60;;;27.20;1.00;;;;;;5084192;28;20432;-79
2023/07/04 12:55:36;;;;;;;77.30;9.47;;;27.40;1.00;;;;;;5083849;28;20406;-79
2023/07/04 12:58:05;;;;;;;72.97;7.90;;;27.50;1.00;;;;;;5084669;28;20427;-79
2023/07/04 13:00:57;;;;;;;79.70;9.63;;;27.60;1.00;;;;;;5084609;28;20790;-79